Amelia, OH (45102)

4:05 PM EDT on July 29, 2015 (GMT -0400)
Scyamore Creek | | Change Station
CLOSE
Current Station
Personal Weather Station
Location: Amelia, OH
Elevation: 879 ft
Nearby Weather Stations
Active Advisory: Special Statement

Elev 879 ft 39.05 °N, 84.23 °W | Updated 13 minutes ago

Partly Cloudy
Partly Cloudy
87.3 °F
Feels Like 108 °F
N
0.0
Wind Variable Wind from North

Today
High -- | Low -- °F
--% Chance of Precip.
Yesterday
High -- | Low -- °F
Precip. -- in
6:34 AM 8:51 PM
Waxing Gibbous, 96% visible
Pressure 29.95 in
Visibility 10.0 miles
Clouds Scattered Clouds 3700 ft
Scattered Clouds 4800 ft
Scattered Clouds 6500 ft
Heat Index 108 °F
Dew Point 83 °F
Humidity 87%
Rainfall 0.00 in
Snow Depth Not available.
UV 7 out of 12
Pollen 5.70 out of 12
Air Quality Not available.
Flu Activity Not available.
METAR KI69 291945Z AUTO 14005KT 10SM SCT037 SCT048 SCT065 30/23 A2995 RMK AO1

More Conditions Fewer Conditions

Pressure 29.95 in
Visibility 10.0 miles
Clouds Scattered Clouds 3700 ft
Scattered Clouds 4800 ft
Scattered Clouds 6500 ft
Heat Index 108 °F
Dew Point 83 °F
Humidity 87%
Rainfall 0.00 in
Snow Depth Not available.
UV 7 out of 12
Pollen 5.70 out of 12
Air Quality Not available.
Flu Activity Not available.
METAR KI69 291945Z AUTO 14005KT 10SM SCT037 SCT048 SCT065 30/23 A2995 RMK AO1

More Conditions Fewer Conditions

10-Day Weather Forecast

×

Almanac

Astronomy

Jul. 29, 2015 Rise Set
Actual Time
Civil Twilight
Nautical Twilight
Astronomical Twilight
Moon
Length of Visible Light
Length of Day
Tomorrow will be .
, % of the Moon is Illuminated

Today's Extremes

State Highs State Lows

Community

WunderPhotos

Upload Photos

1,842,157 photos uploaded!

WunderBlogs® & News

Nearby

Air Quality

  Air Quality AQ Index Pollutant
Not available.

Snow Depth

Station Depth Elevation

Earthquake Activity

City Distance Mag. Time & Date
Minimum magnitude displayed is 2.5.

Coastal Water Temperatures

Place Temperature

Stations

Nearby Weather Stations

Station Location Temp. Windchill Dew Point Humidity Wind Precip. Elev Updated Type
                   
Special Statement
Statement as of 11:50 AM EDT on July 29, 2015

As temperatures rise to around 90 today... dewpoints in the lower
70s will make the heat index approach the upper 90s to around 100
in many locations... especially along the Ohio River.

Sunstroke... heat cramps... and heat exhaustion are an increased
possibility with prolonged exposure to the sun or with physical
activity in these conditions.




1150 am EDT Wed Jul 29 2015

As temperatures rise to around 90 today... dewpoints in the lower
70s will make the heat index approach the upper 90s to around 100
in many locations... especially along the Ohio River.

Sunstroke... heat cramps... and heat exhaustion are an increased
possibility with prolonged exposure to the sun or with physical
activity in these conditions.